<?xml version="1.0" encoding="UTF-8"?>
<gpx xmlns="http://www.topografix.com/GPX/1/1" xmlns:xsi="http://www.w3.org/2001/XMLSchema-instance" version="1.1" xsi:schemaLocation="http://www.topografix.com/GPX/1/1 http://www.topografix.com/GPX/1/1/gpx.xsd">
  <metadata>
    <name>TridelSol Triathlon - Sprint Aquabike</name>
  </metadata>
  <trk>
    <name>TridelSol Triathlon - Sprint Aquabike</name>
    <trkseg>
      <trkpt lat="42.670512" lon="-85.513675">
        <ele>240.068152</ele>
        <time>2024-07-21T09:00:00.000Z</time>
      </trkpt>
      <trkpt lat="42.670536" lon="-85.513642">
        <ele>240.068151</ele>
        <time>2024-07-21T09:00:00.000Z</time>
      </trkpt>
      <trkpt lat="42.670622" lon="-85.513404">
        <ele>240.068159</ele>
        <time>2024-07-21T09:00:02.000Z</time>
      </trkpt>
      <trkpt lat="42.670747" lon="-85.512867">
        <ele>240.068145</ele>
        <time>2024-07-21T09:00:07.000Z</time>
      </trkpt>
      <trkpt lat="42.670779" lon="-85.512048">
        <ele>240.363696</ele>
        <time>2024-07-21T09:00:14.000Z</time>
      </trkpt>
      <trkpt lat="42.671244" lon="-85.512048">
        <ele>240.759723</ele>
        <time>2024-07-21T09:00:19.000Z</time>
      </trkpt>
      <trkpt lat="42.672337" lon="-85.512056">
        <ele>241.676834</ele>
        <time>2024-07-21T09:00:31.000Z</time>
      </trkpt>
      <trkpt lat="42.672684" lon="-85.512037">
        <ele>241.916938</ele>
        <time>2024-07-21T09:00:35.000Z</time>
      </trkpt>
      <trkpt lat="42.673149" lon="-85.51205">
        <ele>242.235608</ele>
        <time>2024-07-21T09:00:40.000Z</time>
      </trkpt>
      <trkpt lat="42.674628" lon="-85.512085">
        <ele>242.93627</ele>
        <time>2024-07-21T09:00:56.000Z</time>
      </trkpt>
      <trkpt lat="42.674698" lon="-85.504625">
        <ele>243.339031</ele>
        <time>2024-07-21T09:01:57.000Z</time>
      </trkpt>
      <trkpt lat="42.674697" lon="-85.504457">
        <ele>243.306394</ele>
        <time>2024-07-21T09:01:58.000Z</time>
      </trkpt>
      <trkpt lat="42.674694" lon="-85.503772">
        <ele>243.164418</ele>
        <time>2024-07-21T09:02:04.000Z</time>
      </trkpt>
      <trkpt lat="42.674679" lon="-85.50288">
        <ele>242.971566</ele>
        <time>2024-07-21T09:02:11.000Z</time>
      </trkpt>
      <trkpt lat="42.674687" lon="-85.501998">
        <ele>242.764966</ele>
        <time>2024-07-21T09:02:18.000Z</time>
      </trkpt>
      <trkpt lat="42.674684" lon="-85.501588">
        <ele>242.672181</ele>
        <time>2024-07-21T09:02:21.000Z</time>
      </trkpt>
      <trkpt lat="42.674678" lon="-85.50148">
        <ele>242.645777</ele>
        <time>2024-07-21T09:02:22.000Z</time>
      </trkpt>
      <trkpt lat="42.674676" lon="-85.50001">
        <ele>242.435023</ele>
        <time>2024-07-21T09:02:34.000Z</time>
      </trkpt>
      <trkpt lat="42.674696" lon="-85.498802">
        <ele>242.39413</ele>
        <time>2024-07-21T09:02:44.000Z</time>
      </trkpt>
      <trkpt lat="42.674689" lon="-85.496559">
        <ele>242.154203</ele>
        <time>2024-07-21T09:03:02.000Z</time>
      </trkpt>
      <trkpt lat="42.674699" lon="-85.495334">
        <ele>242.104505</ele>
        <time>2024-07-21T09:03:12.000Z</time>
      </trkpt>
      <trkpt lat="42.674699" lon="-85.494423">
        <ele>242.213083</ele>
        <time>2024-07-21T09:03:19.000Z</time>
      </trkpt>
      <trkpt lat="42.674715" lon="-85.493224">
        <ele>242.397071</ele>
        <time>2024-07-21T09:03:29.000Z</time>
      </trkpt>
      <trkpt lat="42.674704" lon="-85.491329">
        <ele>243.356056</ele>
        <time>2024-07-21T09:03:44.000Z</time>
      </trkpt>
      <trkpt lat="42.674707" lon="-85.491129">
        <ele>243.451016</ele>
        <time>2024-07-21T09:03:46.000Z</time>
      </trkpt>
      <trkpt lat="42.674725" lon="-85.489701">
        <ele>243.822467</ele>
        <time>2024-07-21T09:03:58.000Z</time>
      </trkpt>
      <trkpt lat="42.674708" lon="-85.48912">
        <ele>243.944247</ele>
        <time>2024-07-21T09:04:03.000Z</time>
      </trkpt>
      <trkpt lat="42.674726" lon="-85.488769">
        <ele>244.015939</ele>
        <time>2024-07-21T09:04:06.000Z</time>
      </trkpt>
      <trkpt lat="42.674715" lon="-85.486652">
        <ele>242.736137</ele>
        <time>2024-07-21T09:04:23.000Z</time>
      </trkpt>
      <trkpt lat="42.674766" lon="-85.483269">
        <ele>238.485659</ele>
        <time>2024-07-21T09:04:51.000Z</time>
      </trkpt>
      <trkpt lat="42.674845" lon="-85.482649">
        <ele>237.127644</ele>
        <time>2024-07-21T09:04:56.000Z</time>
      </trkpt>
      <trkpt lat="42.675076" lon="-85.481925">
        <ele>235.403702</ele>
        <time>2024-07-21T09:05:02.000Z</time>
      </trkpt>
      <trkpt lat="42.676044" lon="-85.480043">
        <ele>230.937359</ele>
        <time>2024-07-21T09:05:21.000Z</time>
      </trkpt>
      <trkpt lat="42.676246" lon="-85.479552">
        <ele>229.913509</ele>
        <time>2024-07-21T09:05:26.000Z</time>
      </trkpt>
      <trkpt lat="42.676367" lon="-85.479142">
        <ele>229.299997</ele>
        <time>2024-07-21T09:05:30.000Z</time>
      </trkpt>
      <trkpt lat="42.676408" lon="-85.478369">
        <ele>229.288693</ele>
        <time>2024-07-21T09:05:36.000Z</time>
      </trkpt>
      <trkpt lat="42.676389" lon="-85.478058">
        <ele>229.283872</ele>
        <time>2024-07-21T09:05:39.000Z</time>
      </trkpt>
      <trkpt lat="42.676181" lon="-85.477209">
        <ele>229.271022</ele>
        <time>2024-07-21T09:05:46.000Z</time>
      </trkpt>
      <trkpt lat="42.675952" lon="-85.476539">
        <ele>229.343337</ele>
        <time>2024-07-21T09:05:52.000Z</time>
      </trkpt>
      <trkpt lat="42.675081" lon="-85.474387">
        <ele>229.799762</ele>
        <time>2024-07-21T09:06:12.000Z</time>
      </trkpt>
      <trkpt lat="42.674976" lon="-85.473891">
        <ele>229.848892</ele>
        <time>2024-07-21T09:06:16.000Z</time>
      </trkpt>
      <trkpt lat="42.674954" lon="-85.473313">
        <ele>229.904921</ele>
        <time>2024-07-21T09:06:21.000Z</time>
      </trkpt>
      <trkpt lat="42.675006" lon="-85.470423">
        <ele>230.265455</ele>
        <time>2024-07-21T09:06:45.000Z</time>
      </trkpt>
      <trkpt lat="42.675045" lon="-85.466935">
        <ele>231.353901</ele>
        <time>2024-07-21T09:07:14.000Z</time>
      </trkpt>
      <trkpt lat="42.675048" lon="-85.466785">
        <ele>231.301488</ele>
        <time>2024-07-21T09:07:15.000Z</time>
      </trkpt>
      <trkpt lat="42.675029" lon="-85.45915">
        <ele>228.394687</ele>
        <time>2024-07-21T09:08:17.000Z</time>
      </trkpt>
      <trkpt lat="42.675027" lon="-85.458081">
        <ele>228.358951</ele>
        <time>2024-07-21T09:08:26.000Z</time>
      </trkpt>
      <trkpt lat="42.67502" lon="-85.457693">
        <ele>228.346037</ele>
        <time>2024-07-21T09:08:29.000Z</time>
      </trkpt>
      <trkpt lat="42.674998" lon="-85.452242">
        <ele>232.923375</ele>
        <time>2024-07-21T09:09:14.000Z</time>
      </trkpt>
      <trkpt lat="42.674715" lon="-85.451953">
        <ele>233.097197</ele>
        <time>2024-07-21T09:09:18.000Z</time>
      </trkpt>
      <trkpt lat="42.674381" lon="-85.451716">
        <ele>233.279306</ele>
        <time>2024-07-21T09:09:22.000Z</time>
      </trkpt>
      <trkpt lat="42.673944" lon="-85.451417">
        <ele>233.520304</ele>
        <time>2024-07-21T09:09:27.000Z</time>
      </trkpt>
      <trkpt lat="42.667765" lon="-85.448009">
        <ele>232.189601</ele>
        <time>2024-07-21T09:10:41.000Z</time>
      </trkpt>
      <trkpt lat="42.667716" lon="-85.447983">
        <ele>232.193405</ele>
        <time>2024-07-21T09:10:42.000Z</time>
      </trkpt>
      <trkpt lat="42.66643" lon="-85.447273">
        <ele>232.782442</ele>
        <time>2024-07-21T09:10:57.000Z</time>
      </trkpt>
      <trkpt lat="42.665852" lon="-85.447053">
        <ele>233.227779</ele>
        <time>2024-07-21T09:11:04.000Z</time>
      </trkpt>
      <trkpt lat="42.665671" lon="-85.447014">
        <ele>233.361321</ele>
        <time>2024-07-21T09:11:06.000Z</time>
      </trkpt>
      <trkpt lat="42.663536" lon="-85.44698">
        <ele>234.281231</ele>
        <time>2024-07-21T09:11:30.000Z</time>
      </trkpt>
      <trkpt lat="42.656703" lon="-85.446974">
        <ele>231.850218</ele>
        <time>2024-07-21T09:12:46.000Z</time>
      </trkpt>
      <trkpt lat="42.656116" lon="-85.446969">
        <ele>231.82785</ele>
        <time>2024-07-21T09:12:53.000Z</time>
      </trkpt>
      <trkpt lat="42.655535" lon="-85.446983">
        <ele>231.96741</ele>
        <time>2024-07-21T09:12:59.000Z</time>
      </trkpt>
      <trkpt lat="42.654352" lon="-85.446964">
        <ele>232.407297</ele>
        <time>2024-07-21T09:13:12.000Z</time>
      </trkpt>
      <trkpt lat="42.653065" lon="-85.446982">
        <ele>233.57361</ele>
        <time>2024-07-21T09:13:26.000Z</time>
      </trkpt>
      <trkpt lat="42.652184" lon="-85.446988">
        <ele>234.530145</ele>
        <time>2024-07-21T09:13:36.000Z</time>
      </trkpt>
      <trkpt lat="42.651991" lon="-85.44698">
        <ele>234.754597</ele>
        <time>2024-07-21T09:13:38.000Z</time>
      </trkpt>
      <trkpt lat="42.651555" lon="-85.446985">
        <ele>235.272108</ele>
        <time>2024-07-21T09:13:43.000Z</time>
      </trkpt>
      <trkpt lat="42.648237" lon="-85.446961">
        <ele>238.10073</ele>
        <time>2024-07-21T09:14:20.000Z</time>
      </trkpt>
      <trkpt lat="42.645945" lon="-85.446959">
        <ele>239.804448</ele>
        <time>2024-07-21T09:14:45.000Z</time>
      </trkpt>
      <trkpt lat="42.645792" lon="-85.446942">
        <ele>239.913079</ele>
        <time>2024-07-21T09:14:47.000Z</time>
      </trkpt>
      <trkpt lat="42.645755" lon="-85.446945">
        <ele>239.941145</ele>
        <time>2024-07-21T09:14:47.000Z</time>
      </trkpt>
      <trkpt lat="42.645135" lon="-85.446948">
        <ele>240.366173</ele>
        <time>2024-07-21T09:14:54.000Z</time>
      </trkpt>
      <trkpt lat="42.644727" lon="-85.446952">
        <ele>240.643647</ele>
        <time>2024-07-21T09:14:59.000Z</time>
      </trkpt>
      <trkpt lat="42.644004" lon="-85.446954">
        <ele>241.150284</ele>
        <time>2024-07-21T09:15:07.000Z</time>
      </trkpt>
      <trkpt lat="42.64225" lon="-85.446934">
        <ele>243.293572</ele>
        <time>2024-07-21T09:15:27.000Z</time>
      </trkpt>
      <trkpt lat="42.639776" lon="-85.446933">
        <ele>247.446362</ele>
        <time>2024-07-21T09:15:55.000Z</time>
      </trkpt>
      <trkpt lat="42.63857" lon="-85.446931">
        <ele>248.330244</ele>
        <time>2024-07-21T09:16:08.000Z</time>
      </trkpt>
      <trkpt lat="42.642255" lon="-85.446941">
        <ele>243.134249</ele>
        <time>2024-07-21T09:16:49.000Z</time>
      </trkpt>
      <trkpt lat="42.644001" lon="-85.446948">
        <ele>241.138811</ele>
        <time>2024-07-21T09:17:08.000Z</time>
      </trkpt>
      <trkpt lat="42.644729" lon="-85.446951">
        <ele>240.604912</ele>
        <time>2024-07-21T09:17:16.000Z</time>
      </trkpt>
      <trkpt lat="42.645137" lon="-85.446943">
        <ele>240.348509</ele>
        <time>2024-07-21T09:17:21.000Z</time>
      </trkpt>
      <trkpt lat="42.645745" lon="-85.446945">
        <ele>239.95944</ele>
        <time>2024-07-21T09:17:28.000Z</time>
      </trkpt>
      <trkpt lat="42.64579" lon="-85.446942">
        <ele>239.934572</ele>
        <time>2024-07-21T09:17:29.000Z</time>
      </trkpt>
      <trkpt lat="42.645939" lon="-85.44695">
        <ele>239.838272</ele>
        <time>2024-07-21T09:17:31.000Z</time>
      </trkpt>
      <trkpt lat="42.648234" lon="-85.446972">
        <ele>238.100641</ele>
        <time>2024-07-21T09:17:57.000Z</time>
      </trkpt>
      <trkpt lat="42.651562" lon="-85.446968">
        <ele>235.331338</ele>
        <time>2024-07-21T09:18:34.000Z</time>
      </trkpt>
      <trkpt lat="42.652004" lon="-85.446981">
        <ele>234.795199</ele>
        <time>2024-07-21T09:18:39.000Z</time>
      </trkpt>
      <trkpt lat="42.652186" lon="-85.446984">
        <ele>234.56267</ele>
        <time>2024-07-21T09:18:41.000Z</time>
      </trkpt>
      <trkpt lat="42.653077" lon="-85.446974">
        <ele>233.500031</ele>
        <time>2024-07-21T09:18:51.000Z</time>
      </trkpt>
      <trkpt lat="42.654357" lon="-85.446964">
        <ele>232.471394</ele>
        <time>2024-07-21T09:19:05.000Z</time>
      </trkpt>
      <trkpt lat="42.655523" lon="-85.446977">
        <ele>231.952524</ele>
        <time>2024-07-21T09:19:18.000Z</time>
      </trkpt>
      <trkpt lat="42.656118" lon="-85.446966">
        <ele>231.87943</ele>
        <time>2024-07-21T09:19:25.000Z</time>
      </trkpt>
      <trkpt lat="42.656686" lon="-85.446981">
        <ele>231.807101</ele>
        <time>2024-07-21T09:19:31.000Z</time>
      </trkpt>
      <trkpt lat="42.663547" lon="-85.446967">
        <ele>234.185174</ele>
        <time>2024-07-21T09:20:47.000Z</time>
      </trkpt>
      <trkpt lat="42.665672" lon="-85.447014">
        <ele>233.363615</ele>
        <time>2024-07-21T09:21:11.000Z</time>
      </trkpt>
      <trkpt lat="42.66586" lon="-85.447058">
        <ele>233.246675</ele>
        <time>2024-07-21T09:21:13.000Z</time>
      </trkpt>
      <trkpt lat="42.666443" lon="-85.447277">
        <ele>232.828799</ele>
        <time>2024-07-21T09:21:20.000Z</time>
      </trkpt>
      <trkpt lat="42.667711" lon="-85.447988">
        <ele>232.157678</ele>
        <time>2024-07-21T09:21:35.000Z</time>
      </trkpt>
      <trkpt lat="42.667766" lon="-85.448013">
        <ele>232.169304</ele>
        <time>2024-07-21T09:21:36.000Z</time>
      </trkpt>
      <trkpt lat="42.673943" lon="-85.451429">
        <ele>233.575945</ele>
        <time>2024-07-21T09:22:50.000Z</time>
      </trkpt>
      <trkpt lat="42.674393" lon="-85.451706">
        <ele>233.373687</ele>
        <time>2024-07-21T09:22:55.000Z</time>
      </trkpt>
      <trkpt lat="42.674705" lon="-85.451959">
        <ele>233.110819</ele>
        <time>2024-07-21T09:22:59.000Z</time>
      </trkpt>
      <trkpt lat="42.67501" lon="-85.452237">
        <ele>232.859886</ele>
        <time>2024-07-21T09:23:03.000Z</time>
      </trkpt>
      <trkpt lat="42.675017" lon="-85.457696">
        <ele>228.467895</ele>
        <time>2024-07-21T09:23:48.000Z</time>
      </trkpt>
      <trkpt lat="42.675028" lon="-85.458082">
        <ele>228.168073</ele>
        <time>2024-07-21T09:23:51.000Z</time>
      </trkpt>
      <trkpt lat="42.67502" lon="-85.459163">
        <ele>228.582259</ele>
        <time>2024-07-21T09:24:00.000Z</time>
      </trkpt>
      <trkpt lat="42.675042" lon="-85.466789">
        <ele>231.331181</ele>
        <time>2024-07-21T09:25:02.000Z</time>
      </trkpt>
      <trkpt lat="42.675047" lon="-85.466932">
        <ele>231.336039</ele>
        <time>2024-07-21T09:25:03.000Z</time>
      </trkpt>
      <trkpt lat="42.675005" lon="-85.470434">
        <ele>230.181154</ele>
        <time>2024-07-21T09:25:32.000Z</time>
      </trkpt>
      <trkpt lat="42.674945" lon="-85.473317">
        <ele>229.922647</ele>
        <time>2024-07-21T09:25:56.000Z</time>
      </trkpt>
      <trkpt lat="42.674978" lon="-85.473891">
        <ele>229.855433</ele>
        <time>2024-07-21T09:26:01.000Z</time>
      </trkpt>
      <trkpt lat="42.67509" lon="-85.474385">
        <ele>229.796518</ele>
        <time>2024-07-21T09:26:05.000Z</time>
      </trkpt>
      <trkpt lat="42.675939" lon="-85.476548">
        <ele>229.312867</ele>
        <time>2024-07-21T09:26:25.000Z</time>
      </trkpt>
      <trkpt lat="42.676184" lon="-85.477214">
        <ele>229.132921</ele>
        <time>2024-07-21T09:26:31.000Z</time>
      </trkpt>
      <trkpt lat="42.676397" lon="-85.47805">
        <ele>229.331043</ele>
        <time>2024-07-21T09:26:38.000Z</time>
      </trkpt>
      <trkpt lat="42.676419" lon="-85.478383">
        <ele>229.419651</ele>
        <time>2024-07-21T09:26:41.000Z</time>
      </trkpt>
      <trkpt lat="42.676365" lon="-85.479147">
        <ele>229.628118</ele>
        <time>2024-07-21T09:26:47.000Z</time>
      </trkpt>
      <trkpt lat="42.676249" lon="-85.479558">
        <ele>229.744413</ele>
        <time>2024-07-21T09:26:51.000Z</time>
      </trkpt>
      <trkpt lat="42.676051" lon="-85.480035">
        <ele>230.707947</ele>
        <time>2024-07-21T09:26:55.000Z</time>
      </trkpt>
      <trkpt lat="42.675089" lon="-85.481928">
        <ele>235.479513</ele>
        <time>2024-07-21T09:27:14.000Z</time>
      </trkpt>
      <trkpt lat="42.674842" lon="-85.482663">
        <ele>237.067196</ele>
        <time>2024-07-21T09:27:21.000Z</time>
      </trkpt>
      <trkpt lat="42.674769" lon="-85.483282">
        <ele>238.317849</ele>
        <time>2024-07-21T09:27:26.000Z</time>
      </trkpt>
      <trkpt lat="42.674717" lon="-85.486645">
        <ele>242.834329</ele>
        <time>2024-07-21T09:27:54.000Z</time>
      </trkpt>
      <trkpt lat="42.674717" lon="-85.488769">
        <ele>244.129228</ele>
        <time>2024-07-21T09:28:11.000Z</time>
      </trkpt>
      <trkpt lat="42.674716" lon="-85.489115">
        <ele>244.111382</ele>
        <time>2024-07-21T09:28:14.000Z</time>
      </trkpt>
      <trkpt lat="42.674722" lon="-85.489697">
        <ele>243.902717</ele>
        <time>2024-07-21T09:28:19.000Z</time>
      </trkpt>
      <trkpt lat="42.674718" lon="-85.491126">
        <ele>243.388789</ele>
        <time>2024-07-21T09:28:31.000Z</time>
      </trkpt>
      <trkpt lat="42.674703" lon="-85.491329">
        <ele>243.320918</ele>
        <time>2024-07-21T09:28:33.000Z</time>
      </trkpt>
      <trkpt lat="42.67471" lon="-85.493221">
        <ele>242.454392</ele>
        <time>2024-07-21T09:28:48.000Z</time>
      </trkpt>
      <trkpt lat="42.6747" lon="-85.494424">
        <ele>242.174271</ele>
        <time>2024-07-21T09:28:58.000Z</time>
      </trkpt>
      <trkpt lat="42.674695" lon="-85.495334">
        <ele>242.131991</ele>
        <time>2024-07-21T09:29:05.000Z</time>
      </trkpt>
      <trkpt lat="42.674706" lon="-85.49657">
        <ele>242.134669</ele>
        <time>2024-07-21T09:29:15.000Z</time>
      </trkpt>
      <trkpt lat="42.674686" lon="-85.498792">
        <ele>242.417464</ele>
        <time>2024-07-21T09:29:33.000Z</time>
      </trkpt>
      <trkpt lat="42.674692" lon="-85.500019">
        <ele>242.458887</ele>
        <time>2024-07-21T09:29:43.000Z</time>
      </trkpt>
      <trkpt lat="42.674669" lon="-85.501488">
        <ele>242.600698</ele>
        <time>2024-07-21T09:29:55.000Z</time>
      </trkpt>
      <trkpt lat="42.674675" lon="-85.501591">
        <ele>242.633254</ele>
        <time>2024-07-21T09:29:56.000Z</time>
      </trkpt>
      <trkpt lat="42.674671" lon="-85.501999">
        <ele>242.747619</ele>
        <time>2024-07-21T09:29:59.000Z</time>
      </trkpt>
      <trkpt lat="42.674679" lon="-85.50288">
        <ele>243.002272</ele>
        <time>2024-07-21T09:30:06.000Z</time>
      </trkpt>
      <trkpt lat="42.674694" lon="-85.503771">
        <ele>243.207161</ele>
        <time>2024-07-21T09:30:13.000Z</time>
      </trkpt>
      <trkpt lat="42.674699" lon="-85.504454">
        <ele>243.227079</ele>
        <time>2024-07-21T09:30:19.000Z</time>
      </trkpt>
      <trkpt lat="42.674705" lon="-85.504611">
        <ele>243.231649</ele>
        <time>2024-07-21T09:30:20.000Z</time>
      </trkpt>
      <trkpt lat="42.674642" lon="-85.512075">
        <ele>242.951938</ele>
        <time>2024-07-21T09:31:21.000Z</time>
      </trkpt>
      <trkpt lat="42.673143" lon="-85.512055">
        <ele>242.265126</ele>
        <time>2024-07-21T09:31:38.000Z</time>
      </trkpt>
      <trkpt lat="42.672683" lon="-85.512043">
        <ele>241.898468</ele>
        <time>2024-07-21T09:31:43.000Z</time>
      </trkpt>
      <trkpt lat="42.672341" lon="-85.512039">
        <ele>241.622233</ele>
        <time>2024-07-21T09:31:47.000Z</time>
      </trkpt>
      <trkpt lat="42.671246" lon="-85.51204">
        <ele>241.268057</ele>
        <time>2024-07-21T09:31:59.000Z</time>
      </trkpt>
      <trkpt lat="42.670778" lon="-85.512031">
        <ele>241.1619929</ele>
        <time>2024-07-21T09:32:04.000Z</time>
      </trkpt>
      <trkpt lat="42.670748" lon="-85.512881">
        <ele>241.020205018</ele>
        <time>2024-07-21T09:32:11.000Z</time>
      </trkpt>
      <trkpt lat="42.670639" lon="-85.513402">
        <ele>240.929951464</ele>
        <time>2024-07-21T09:32:15.000Z</time>
      </trkpt>
      <trkpt lat="42.670535" lon="-85.51365">
        <ele>240.88238184</ele>
        <time>2024-07-21T09:32:17.000Z</time>
      </trkpt>
    </trkseg>
  </trk>
</gpx>

<!--
Performance optimized by W3 Total Cache. Learn more: https://www.boldgrid.com/w3-total-cache/?utm_source=w3tc&utm_medium=footer_comment&utm_campaign=free_plugin

Page Caching using Disk: Enhanced{w3tc_pagecache_reject_reason} 

Served from: www.aquabike.world @ 2026-05-02 16:27:49 by W3 Total Cache
-->